createdAt,value
2019-03-31T00:01:07.983Z,52.40
2019-03-31T00:03:28.044Z,54.33
2019-03-31T00:05:56.653Z,54.03
2019-03-31T00:08:25.155Z,58.83
2019-03-31T00:10:53.601Z,52.93
2019-03-31T00:13:22.081Z,50.97
2019-03-31T00:15:50.555Z,51.97
2019-03-31T00:18:19.062Z,57.30
2019-03-31T00:20:47.522Z,49.73
2019-03-31T00:23:16.130Z,52.93
2019-03-31T00:25:46.227Z,49.40
2019-03-31T00:28:14.731Z,51.90
2019-03-31T00:30:43.279Z,54.93
2019-03-31T00:33:11.756Z,51.23
2019-03-31T00:35:40.499Z,58.67
2019-03-31T00:38:09.166Z,56.33
2019-03-31T00:40:37.624Z,49.77
2019-03-31T00:43:06.123Z,52.90
2019-03-31T00:45:34.838Z,53.43
2019-03-31T00:48:03.383Z,50.63
2019-03-31T00:50:31.877Z,49.47
2019-03-31T00:53:00.352Z,49.87
2019-03-31T00:55:28.899Z,50.20
2019-03-31T00:57:57.362Z,51.47
2019-03-31T01:00:29.888Z,53.53
2019-03-31T01:02:59.000Z,55.13
2019-03-31T01:05:27.466Z,50.60
2019-03-31T01:07:56.273Z,46.80
2019-03-31T01:10:25.509Z,46.20
2019-03-31T01:12:54.136Z,44.70
2019-03-31T01:15:23.737Z,45.90
2019-03-31T01:17:52.373Z,48.77
2019-03-31T01:20:20.886Z,50.33
2019-03-31T01:22:49.670Z,51.60
2019-03-31T01:25:18.508Z,43.30
2019-03-31T01:27:47.007Z,48.47
2019-03-31T01:30:16.314Z,47.53
2019-03-31T01:32:45.071Z,48.57
2019-03-31T01:35:13.753Z,46.07
2019-03-31T01:37:42.232Z,46.93
2019-03-31T01:40:10.741Z,46.47
2019-03-31T01:42:39.304Z,47.27
2019-03-31T01:45:08.208Z,47.70
2019-03-31T01:47:36.767Z,41.80
2019-03-31T01:50:08.502Z,40.47
2019-03-31T01:52:36.982Z,44.33
2019-03-31T01:55:08.528Z,41.97
2019-03-31T01:57:37.096Z,45.50
2019-03-31T02:00:11.494Z,42.53
2019-03-31T02:02:39.998Z,43.03
2019-03-31T02:05:08.624Z,44.43
2019-03-31T02:07:37.182Z,40.87
2019-03-31T02:10:06.729Z,39.87
2019-03-31T02:12:35.252Z,42.53
2019-03-31T02:15:05.922Z,41.70
2019-03-31T02:17:34.443Z,36.80
2019-03-31T02:20:02.911Z,45.17
2019-03-31T02:22:31.394Z,44.67
2019-03-31T02:24:59.851Z,41.73
2019-03-31T02:27:28.321Z,39.87
2019-03-31T02:29:56.787Z,51.50
2019-03-31T02:32:25.325Z,46.17
2019-03-31T02:34:53.945Z,43.37
2019-03-31T02:37:22.425Z,49.83
2019-03-31T02:39:50.895Z,45.10
2019-03-31T02:42:19.342Z,53.93
2019-03-31T02:44:47.861Z,44.80
2019-03-31T02:47:16.307Z,45.40
2019-03-31T02:49:44.822Z,48.07
2019-03-31T02:52:13.302Z,38.90
2019-03-31T02:54:41.890Z,42.97
2019-03-31T02:57:10.651Z,50.57
2019-03-31T02:59:39.513Z,54.93
2019-03-31T03:02:09.526Z,39.00
2019-03-31T03:04:39.595Z,42.97
2019-03-31T03:07:08.622Z,40.17
2019-03-31T03:09:37.778Z,43.50
2019-03-31T03:12:09.249Z,51.30
2019-03-31T03:14:38.868Z,56.80
2019-03-31T03:17:07.328Z,46.50
2019-03-31T03:19:35.862Z,54.87
2019-03-31T03:22:04.299Z,61.57
2019-03-31T03:24:32.801Z,42.50
2019-03-31T03:27:01.258Z,40.33
2019-03-31T03:29:29.739Z,48.53
2019-03-31T03:31:58.199Z,49.90
2019-03-31T03:34:26.670Z,49.90
2019-03-31T03:36:55.115Z,49.17
2019-03-31T03:39:23.753Z,69.07
2019-03-31T03:41:52.207Z,45.43
2019-03-31T03:44:20.698Z,51.00
2019-03-31T03:46:49.141Z,40.47
2019-03-31T03:49:17.783Z,50.10
2019-03-31T03:51:46.300Z,48.33
2019-03-31T03:54:15.033Z,61.00
2019-03-31T03:56:43.503Z,45.20
2019-03-31T03:59:11.977Z,56.00
2019-03-31T04:01:40.456Z,46.57
2019-03-31T04:04:08.945Z,54.07
2019-03-31T04:06:37.383Z,50.80
2019-03-31T04:09:06.881Z,53.17
2019-03-31T04:11:35.417Z,67.03
2019-03-31T04:14:04.042Z,60.37
2019-03-31T04:16:32.535Z,61.83
2019-03-31T04:19:01.065Z,42.50
2019-03-31T04:21:29.542Z,62.03
2019-03-31T04:23:58.179Z,57.90
2019-03-31T04:26:26.701Z,53.23
2019-03-31T04:28:55.255Z,63.30
2019-03-31T04:31:23.778Z,56.93
2019-03-31T04:33:53.154Z,66.43
2019-03-31T04:36:21.764Z,65.93
2019-03-31T04:38:50.243Z,50.90
2019-03-31T04:41:18.716Z,50.60
2019-03-31T04:43:47.275Z,60.50
2019-03-31T04:46:15.813Z,61.73
2019-03-31T04:48:44.358Z,60.47
2019-03-31T04:51:12.849Z,55.03
2019-03-31T04:53:41.319Z,58.63
2019-03-31T04:56:09.847Z,63.67
2019-03-31T04:58:38.378Z,68.13
2019-03-31T05:01:06.839Z,63.67
2019-03-31T05:03:35.310Z,56.50
2019-03-31T05:06:03.775Z,58.63
2019-03-31T05:08:32.278Z,64.17
2019-03-31T05:11:00.722Z,68.77
2019-03-31T05:13:29.214Z,63.40
2019-03-31T05:15:57.648Z,57.90
2019-03-31T05:18:26.222Z,64.30
2019-03-31T05:20:54.676Z,72.80
2019-03-31T05:23:23.185Z,76.50
2019-03-31T05:25:51.643Z,55.43
2019-03-31T05:28:20.159Z,73.83
2019-03-31T05:30:48.601Z,80.03
2019-03-31T05:33:17.125Z,75.27
2019-03-31T05:35:45.718Z,72.57
2019-03-31T05:38:14.211Z,71.90
2019-03-31T05:40:42.694Z,73.87
2019-03-31T05:43:11.201Z,81.70
2019-03-31T05:45:39.673Z,76.20
2019-03-31T05:48:08.145Z,81.63
2019-03-31T05:50:36.614Z,87.20
2019-03-31T05:53:05.156Z,81.87
2019-03-31T05:55:33.600Z,85.07
2019-03-31T05:58:02.090Z,86.43
2019-03-31T06:00:36.323Z,88.20
2019-03-31T06:03:04.903Z,95.53
2019-03-31T06:05:33.364Z,87.50
2019-03-31T06:08:01.827Z,84.13
2019-03-31T06:10:30.294Z,82.73
2019-03-31T06:12:58.827Z,92.07
2019-03-31T06:15:27.268Z,90.07
2019-03-31T06:17:55.751Z,88.70
2019-03-31T06:20:24.191Z,83.07
2019-03-31T06:22:52.676Z,80.43
2019-03-31T06:25:21.138Z,76.90
2019-03-31T06:27:49.600Z,71.43
2019-03-31T06:30:18.111Z,72.97
2019-03-31T06:32:46.599Z,69.37
2019-03-31T06:35:15.047Z,73.37
2019-03-31T06:37:43.825Z,71.80
2019-03-31T06:40:12.557Z,61.73
2019-03-31T06:42:41.059Z,57.43
2019-03-31T06:45:09.676Z,59.63
2019-03-31T06:47:38.230Z,54.53
2019-03-31T06:50:08.273Z,72.30
2019-03-31T06:52:36.836Z,61.03
2019-03-31T06:55:07.179Z,56.00
2019-03-31T06:57:35.660Z,59.20
2019-03-31T07:00:06.063Z,64.90
2019-03-31T07:02:34.717Z,57.43
2019-03-31T07:05:04.454Z,60.30
2019-03-31T07:07:32.940Z,59.13
2019-03-31T07:10:01.409Z,63.33
2019-03-31T07:12:30.234Z,73.37
2019-03-31T07:14:58.726Z,67.20
2019-03-31T07:17:27.264Z,66.17
2019-03-31T07:19:55.734Z,59.70
2019-03-31T07:22:24.562Z,71.53
2019-03-31T07:24:53.066Z,54.87
2019-03-31T07:27:21.526Z,57.13
2019-03-31T07:29:50.008Z,51.30
2019-03-31T07:32:18.503Z,53.37
2019-03-31T07:34:46.989Z,54.37
2019-03-31T07:37:15.502Z,61.63
2019-03-31T07:39:46.025Z,55.40
2019-03-31T07:42:14.198Z,48.43
2019-03-31T07:44:42.665Z,57.07
2019-03-31T07:47:11.210Z,51.93
2019-03-31T07:49:39.912Z,48.93
2019-03-31T07:52:08.403Z,42.80
2019-03-31T07:54:36.866Z,53.80
2019-03-31T07:57:06.981Z,55.50
2019-03-31T07:59:35.693Z,49.40
2019-03-31T08:02:04.267Z,35.87
2019-03-31T08:04:32.717Z,32.97
2019-03-31T08:07:01.199Z,35.50
2019-03-31T08:09:29.661Z,31.50
2019-03-31T08:11:58.153Z,30.50
2019-03-31T08:14:26.584Z,30.73
2019-03-31T08:16:55.065Z,30.43
2019-03-31T08:19:23.505Z,34.07
2019-03-31T08:21:51.996Z,32.60
2019-03-31T08:24:20.447Z,31.33
2019-03-31T08:26:48.926Z,37.13
2019-03-31T08:29:17.511Z,35.17
2019-03-31T08:31:45.995Z,32.07
2019-03-31T08:34:14.432Z,38.63
2019-03-31T08:36:42.950Z,33.70
2019-03-31T08:39:11.488Z,28.70
2019-03-31T08:41:39.980Z,33.30
2019-03-31T08:44:08.423Z,22.67
2019-03-31T08:46:36.935Z,29.10
2019-03-31T08:49:05.380Z,22.07
2019-03-31T08:51:33.899Z,23.57
2019-03-31T08:54:02.338Z,23.03
2019-03-31T08:56:30.835Z,28.03
2019-03-31T08:58:59.277Z,25.87
2019-03-31T09:01:27.808Z,26.10
2019-03-31T09:03:56.280Z,31.70
2019-03-31T09:06:24.762Z,35.30
2019-03-31T09:08:53.261Z,37.70
2019-03-31T09:11:23.441Z,29.13
2019-03-31T09:13:51.960Z,30.80
2019-03-31T09:16:20.487Z,23.00
2019-03-31T09:18:48.942Z,30.23
2019-03-31T09:21:17.487Z,29.50
2019-03-31T09:23:45.931Z,25.70
2019-03-31T09:26:14.446Z,24.57
2019-03-31T09:28:42.914Z,21.80
2019-03-31T09:31:11.417Z,23.73
2019-03-31T09:33:39.931Z,21.40
2019-03-31T09:36:15.978Z,24.00
2019-03-31T09:38:38.645Z,22.20
2019-03-31T09:41:07.401Z,23.03
2019-03-31T09:43:35.867Z,19.63
2019-03-31T09:46:04.578Z,18.57
2019-03-31T09:48:33.025Z,17.60
2019-03-31T09:51:01.535Z,22.77
2019-03-31T09:53:29.978Z,22.03
2019-03-31T09:55:58.496Z,18.63
2019-03-31T09:58:27.023Z,13.33
2019-03-31T10:00:56.376Z,15.77
2019-03-31T10:03:24.903Z,14.50
2019-03-31T10:05:53.397Z,15.60
2019-03-31T10:08:22.439Z,15.53
2019-03-31T10:10:50.969Z,14.83
2019-03-31T10:13:19.534Z,22.50
2019-03-31T10:15:47.990Z,19.97
2019-03-31T10:18:18.099Z,11.23
2019-03-31T10:20:46.809Z,14.73
2019-03-31T10:23:15.267Z,16.73
2019-03-31T10:25:43.728Z,17.10
2019-03-31T10:28:12.201Z,12.93
2019-03-31T10:30:40.822Z,9.67
2019-03-31T10:33:09.379Z,14.07
2019-03-31T10:35:37.967Z,9.90
2019-03-31T10:38:06.974Z,9.00
2019-03-31T10:40:35.482Z,9.20
2019-03-31T10:43:04.012Z,9.57
2019-03-31T10:45:32.486Z,9.17
2019-03-31T10:48:00.936Z,11.63
2019-03-31T10:50:29.459Z,10.80
2019-03-31T10:52:57.937Z,10.67
2019-03-31T10:55:26.792Z,18.77
2019-03-31T10:57:55.257Z,11.27
2019-03-31T11:00:31.626Z,12.60
2019-03-31T11:03:00.134Z,9.80
2019-03-31T11:05:28.567Z,17.87
2019-03-31T11:07:57.352Z,10.00
2019-03-31T11:10:25.800Z,10.43
2019-03-31T11:12:54.304Z,10.00
2019-03-31T11:15:22.771Z,11.50
2019-03-31T11:17:51.262Z,13.10
2019-03-31T11:20:19.714Z,15.73
2019-03-31T11:22:55.230Z,10.90
2019-03-31T11:25:27.637Z,10.33
2019-03-31T11:27:53.943Z,13.90
2019-03-31T11:30:22.556Z,12.20
2019-03-31T11:32:51.024Z,12.30
2019-03-31T11:35:19.510Z,7.87
2019-03-31T11:37:47.992Z,12.87
2019-03-31T11:40:16.548Z,10.00
2019-03-31T11:42:45.041Z,11.47
2019-03-31T11:45:13.736Z,11.90
2019-03-31T11:47:42.294Z,11.00
2019-03-31T11:50:11.259Z,9.17
2019-03-31T11:52:39.720Z,8.83
2019-03-31T11:55:08.754Z,6.67
2019-03-31T11:57:37.290Z,10.07
2019-03-31T12:00:09.410Z,8.37
2019-03-31T12:02:43.215Z,10.30
2019-03-31T12:05:11.745Z,11.13
2019-03-31T12:07:47.169Z,8.10
2019-03-31T12:10:13.949Z,10.17
2019-03-31T12:12:42.529Z,11.97
2019-03-31T12:15:11.008Z,7.83
2019-03-31T12:17:39.477Z,7.30
2019-03-31T12:20:09.234Z,19.97
2019-03-31T12:22:38.037Z,11.30
2019-03-31T12:25:08.128Z,8.90
2019-03-31T12:27:37.595Z,10.90
2019-03-31T12:30:08.689Z,8.97
2019-03-31T12:32:38.587Z,12.17
2019-03-31T12:35:07.889Z,9.13
2019-03-31T12:37:42.621Z,12.37
2019-03-31T12:40:08.972Z,9.27
2019-03-31T12:42:37.473Z,4.97
2019-03-31T12:45:06.563Z,7.03
2019-03-31T12:47:35.003Z,9.10
2019-03-31T12:50:04.661Z,5.33
2019-03-31T12:52:46.079Z,7.33
2019-03-31T12:55:03.313Z,5.67
2019-03-31T12:57:31.766Z,3.83
2019-03-31T13:00:00.408Z,5.30
2019-03-31T13:02:28.831Z,8.60
2019-03-31T13:04:57.411Z,5.80
2019-03-31T13:07:25.976Z,3.83
2019-03-31T13:09:54.506Z,5.10
2019-03-31T13:12:22.944Z,5.30
2019-03-31T13:14:51.413Z,8.10
2019-03-31T13:17:19.860Z,6.50
2019-03-31T13:19:48.355Z,8.03
2019-03-31T13:22:16.807Z,8.57
2019-03-31T13:24:47.141Z,7.87
2019-03-31T13:27:18.516Z,4.97
2019-03-31T13:29:47.004Z,7.77
2019-03-31T13:32:15.438Z,5.40
2019-03-31T13:34:44.023Z,8.00
2019-03-31T13:37:12.787Z,4.80
2019-03-31T13:39:41.321Z,6.20
2019-03-31T13:42:09.774Z,9.13
2019-03-31T13:44:38.313Z,7.40
2019-03-31T13:47:06.761Z,9.90
2019-03-31T13:49:35.246Z,6.60
2019-03-31T13:52:03.695Z,5.83
2019-03-31T13:54:32.516Z,11.30
2019-03-31T13:57:00.992Z,7.53
2019-03-31T13:59:30.598Z,6.07
2019-03-31T14:02:00.344Z,7.10
2019-03-31T14:04:29.082Z,3.83
2019-03-31T14:06:57.509Z,9.93
2019-03-31T14:09:25.999Z,9.50
2019-03-31T14:11:54.451Z,7.07
2019-03-31T14:14:22.969Z,8.50
2019-03-31T14:16:51.470Z,6.10
2019-03-31T14:19:19.957Z,6.93
2019-03-31T14:21:48.480Z,8.13
2019-03-31T14:24:17.199Z,6.10
2019-03-31T14:26:47.701Z,4.37
2019-03-31T14:29:15.879Z,8.63
2019-03-31T14:31:44.312Z,18.13
2019-03-31T14:34:12.883Z,6.97
2019-03-31T14:36:41.368Z,10.17
2019-03-31T14:39:10.101Z,7.30
2019-03-31T14:41:38.565Z,7.17
2019-03-31T14:44:07.079Z,7.90
2019-03-31T14:46:35.608Z,5.13
2019-03-31T14:49:04.153Z,7.17
2019-03-31T14:51:32.590Z,9.00
2019-03-31T14:54:01.100Z,10.70
2019-03-31T14:56:29.861Z,6.10
2019-03-31T14:58:58.342Z,7.50
2019-03-31T15:01:26.827Z,6.10
2019-03-31T15:03:55.314Z,7.27
2019-03-31T15:06:23.757Z,10.67
2019-03-31T15:08:54.586Z,4.80
2019-03-31T15:11:22.438Z,7.97
2019-03-31T15:13:50.889Z,8.13
2019-03-31T15:16:19.354Z,5.20
2019-03-31T15:18:47.838Z,5.23
2019-03-31T15:21:16.315Z,5.03
2019-03-31T15:23:44.786Z,5.30
2019-03-31T15:26:13.284Z,9.37
2019-03-31T15:28:45.270Z,5.67
2019-03-31T15:31:12.283Z,8.73
2019-03-31T15:33:40.796Z,5.93
2019-03-31T15:36:09.237Z,4.67
2019-03-31T15:38:37.752Z,7.10
2019-03-31T15:41:20.367Z,7.83
2019-03-31T15:43:36.388Z,4.40
2019-03-31T15:46:04.863Z,7.10
2019-03-31T15:48:33.365Z,9.00
2019-03-31T15:51:01.815Z,7.73
2019-03-31T15:53:30.285Z,10.03
2019-03-31T15:55:58.739Z,9.07
2019-03-31T15:58:27.203Z,4.70
2019-03-31T16:00:55.672Z,5.10
2019-03-31T16:03:24.131Z,8.83
2019-03-31T16:05:52.578Z,6.50
2019-03-31T16:08:21.047Z,6.03
2019-03-31T16:10:49.495Z,6.03
2019-03-31T16:13:17.962Z,3.03
2019-03-31T16:15:46.408Z,3.83
2019-03-31T16:18:14.901Z,1.93
2019-03-31T16:20:43.431Z,4.60
2019-03-31T16:23:11.912Z,4.10
2019-03-31T16:25:45.081Z,7.03
2019-03-31T16:28:13.533Z,7.80
2019-03-31T16:30:42.273Z,5.93
2019-03-31T16:33:10.812Z,5.27
2019-03-31T16:35:39.353Z,6.80
2019-03-31T16:38:07.922Z,4.30
2019-03-31T16:40:36.376Z,3.87
2019-03-31T16:43:04.855Z,2.40
2019-03-31T16:45:33.327Z,4.30
2019-03-31T16:48:01.903Z,3.33
2019-03-31T16:50:30.634Z,2.93
2019-03-31T16:52:59.159Z,5.40
2019-03-31T16:55:27.621Z,4.03
2019-03-31T16:57:56.212Z,6.10
2019-03-31T17:00:24.660Z,5.77
2019-03-31T17:02:53.827Z,4.50
2019-03-31T17:05:22.765Z,7.07
2019-03-31T17:07:51.254Z,5.67
2019-03-31T17:10:19.751Z,2.63
2019-03-31T17:12:48.238Z,5.77
2019-03-31T17:15:16.841Z,4.13
2019-03-31T17:17:45.294Z,8.43
2019-03-31T17:20:14.207Z,8.70
2019-03-31T17:22:43.019Z,3.60
2019-03-31T17:25:11.591Z,3.80
2019-03-31T17:27:40.116Z,11.83
2019-03-31T17:30:09.338Z,8.10
2019-03-31T17:32:37.870Z,10.30
2019-03-31T17:35:06.570Z,4.47
2019-03-31T17:37:35.105Z,5.50
2019-03-31T17:40:06.821Z,6.87
2019-03-31T17:42:35.703Z,6.63
2019-03-31T17:45:06.192Z,6.13
2019-03-31T17:47:34.650Z,8.10
2019-03-31T17:50:03.420Z,6.07
2019-03-31T17:52:31.940Z,8.33
2019-03-31T17:55:00.410Z,5.57
2019-03-31T17:57:28.946Z,4.43
2019-03-31T17:59:57.434Z,7.13
2019-03-31T18:02:25.927Z,7.13
2019-03-31T18:04:54.643Z,6.37
2019-03-31T18:07:23.130Z,6.87
2019-03-31T18:09:51.589Z,7.93
2019-03-31T18:12:20.362Z,9.93
2019-03-31T18:14:48.806Z,7.23
2019-03-31T18:17:17.422Z,8.63
2019-03-31T18:19:45.867Z,9.90
2019-03-31T18:22:16.667Z,7.23
2019-03-31T18:24:44.470Z,6.83
2019-03-31T18:27:13.330Z,6.50
2019-03-31T18:29:44.625Z,9.93
2019-03-31T18:32:13.156Z,9.33
2019-03-31T18:34:41.612Z,6.00
2019-03-31T18:37:10.212Z,7.60
2019-03-31T18:39:38.655Z,9.47
2019-03-31T18:42:07.207Z,6.93
2019-03-31T18:44:35.773Z,5.30
2019-03-31T18:47:04.316Z,7.70
2019-03-31T18:49:32.826Z,7.40
2019-03-31T18:52:01.269Z,7.50
2019-03-31T18:54:34.386Z,7.33
2019-03-31T18:57:19.697Z,10.17
2019-03-31T18:59:53.128Z,7.50
2019-03-31T19:02:25.670Z,9.70
2019-03-31T19:05:07.641Z,10.63
2019-03-31T19:07:43.437Z,11.20
2019-03-31T19:10:31.734Z,9.00
2019-03-31T19:13:01.902Z,9.43
2019-03-31T19:15:32.197Z,9.00
2019-03-31T19:18:11.453Z,10.33
2019-03-31T19:21:10.498Z,7.30
2019-03-31T19:23:36.031Z,6.50
2019-03-31T19:26:20.130Z,6.87
2019-03-31T19:29:02.340Z,8.50
2019-03-31T19:31:44.436Z,4.13
2019-03-31T19:34:20.820Z,7.00
2019-03-31T19:37:06.895Z,9.80
2019-03-31T19:39:53.023Z,10.03
2019-03-31T19:42:23.149Z,6.60
2019-03-31T19:44:55.685Z,7.30
2019-03-31T19:47:31.674Z,6.23
2019-03-31T19:50:13.769Z,10.57
2019-03-31T19:52:46.633Z,4.63
2019-03-31T19:55:16.743Z,15.33
2019-03-31T19:57:46.844Z,13.23
2019-03-31T20:00:19.900Z,8.77
2019-03-31T20:03:07.921Z,9.80
2019-03-31T20:05:43.612Z,11.17
2019-03-31T20:08:13.735Z,9.90
2019-03-31T20:10:49.487Z,8.03
2019-03-31T20:13:37.361Z,5.23
2019-03-31T20:16:23.500Z,10.60
2019-03-31T20:19:02.458Z,6.80
2019-03-31T20:21:32.728Z,7.23
2019-03-31T20:24:08.611Z,6.40
2019-03-31T20:26:53.525Z,16.07
2019-03-31T20:29:29.055Z,7.60
2019-03-31T20:32:02.190Z,10.67
2019-03-31T20:34:48.520Z,6.27
2019-03-31T20:37:30.745Z,6.20
2019-03-31T20:40:15.776Z,7.10
2019-03-31T20:43:03.655Z,9.17
2019-03-31T20:45:32.172Z,10.97
2019-03-31T20:48:00.616Z,5.27
2019-03-31T20:50:29.178Z,8.23
2019-03-31T20:52:57.607Z,5.90
2019-03-31T20:55:26.122Z,10.20
2019-03-31T20:57:54.551Z,5.23
2019-03-31T21:00:23.078Z,6.07
2019-03-31T21:02:51.513Z,4.83
2019-03-31T21:05:20.014Z,7.33
2019-03-31T21:07:48.437Z,4.40
2019-03-31T21:10:16.977Z,13.17
2019-03-31T21:12:45.451Z,7.50
2019-03-31T21:15:13.937Z,8.30
2019-03-31T21:17:42.398Z,4.83
2019-03-31T21:20:11.013Z,4.73
2019-03-31T21:22:39.437Z,5.23
2019-03-31T21:25:08.092Z,10.27
2019-03-31T21:27:36.522Z,9.23
2019-03-31T21:30:06.438Z,7.27
2019-03-31T21:32:34.873Z,11.20
2019-03-31T21:35:03.925Z,6.90
2019-03-31T21:37:32.353Z,5.20
2019-03-31T21:40:00.853Z,6.57
2019-03-31T21:42:29.282Z,7.57
2019-03-31T21:44:57.745Z,9.63
2019-03-31T21:47:26.185Z,6.63
2019-03-31T21:49:54.708Z,10.07
2019-03-31T21:52:23.187Z,8.27
2019-03-31T21:54:51.637Z,9.60
2019-03-31T21:57:20.097Z,5.93
2019-03-31T21:59:48.563Z,5.03
2019-03-31T22:02:17.073Z,10.23
2019-03-31T22:04:45.854Z,5.40
2019-03-31T22:07:14.283Z,6.43
2019-03-31T22:09:42.805Z,14.20
2019-03-31T22:12:11.276Z,6.37
2019-03-31T22:14:39.846Z,8.50
2019-03-31T22:17:08.293Z,7.80
2019-03-31T22:19:36.769Z,3.33
2019-03-31T22:22:05.204Z,3.90
2019-03-31T22:24:33.687Z,7.03
2019-03-31T22:27:02.103Z,6.47
2019-03-31T22:29:30.564Z,7.60
2019-03-31T22:31:58.985Z,8.37
2019-03-31T22:34:27.476Z,6.90
2019-03-31T22:36:55.929Z,10.17
2019-03-31T22:39:24.398Z,7.13
2019-03-31T22:41:52.923Z,3.60
2019-03-31T22:44:21.382Z,7.20
2019-03-31T22:46:54.370Z,4.80
2019-03-31T22:49:20.265Z,4.17
2019-03-31T22:51:48.735Z,4.27
2019-03-31T22:54:17.234Z,2.73
2019-03-31T22:56:45.696Z,10.40
2019-03-31T22:59:14.167Z,6.50
2019-03-31T23:01:42.606Z,5.63
2019-03-31T23:04:11.133Z,6.63
2019-03-31T23:06:39.574Z,6.87
2019-03-31T23:09:08.217Z,6.53
2019-03-31T23:11:36.683Z,7.33
2019-03-31T23:14:05.193Z,8.87
2019-03-31T23:16:33.659Z,13.43
2019-03-31T23:19:02.215Z,7.23
2019-03-31T23:21:30.678Z,15.67
2019-03-31T23:23:59.143Z,8.77
2019-03-31T23:26:27.565Z,14.40
2019-03-31T23:28:56.089Z,8.33
2019-03-31T23:31:24.528Z,6.30
2019-03-31T23:33:52.992Z,6.57
2019-03-31T23:36:21.409Z,4.43
2019-03-31T23:38:49.914Z,7.43
2019-03-31T23:41:18.355Z,9.90
2019-03-31T23:43:46.844Z,4.20
2019-03-31T23:46:15.271Z,7.13
2019-03-31T23:48:43.777Z,10.93
2019-03-31T23:51:12.245Z,13.90
2019-03-31T23:53:40.699Z,8.17
2019-03-31T23:56:09.149Z,11.33
2019-03-31T23:58:37.604Z,7.43
